Time;durP1;ratioP1;P1;durP2;ratioP2;P2;SDS_P1;SDS_P2;PMS_P1;PMS_P2;Temp;Humidity;BMP_temperature;BMP_pressure;BME280_temperature;BME280_humidity;BME280_pressure;Samples;Min_cycle;Max_cycle;Signal;HPM_P1;HPM_P2
2023/11/17 00:00:05;;;;;;;1.60;1.27;;;6.90;98.20;;;;;;5011181;28;21021;-80
2023/11/17 00:02:32;;;;;;;1.60;1.30;;;6.90;98.20;;;;;;4996985;28;20486;-80
2023/11/17 00:05:00;;;;;;;1.60;1.30;;;6.90;98.20;;;;;;5008851;28;20465;-80
2023/11/17 00:07:28;;;;;;;1.60;1.20;;;6.90;98.20;;;;;;5001757;28;20559;-80
2023/11/17 00:09:56;;;;;;;1.63;1.33;;;6.80;98.20;;;;;;5007718;28;20461;-79
2023/11/17 00:12:23;;;;;;;1.70;1.30;;;6.80;98.20;;;;;;5003813;28;20911;-79
2023/11/17 00:14:49;;;;;;;1.60;1.30;;;6.80;98.20;;;;;;5009770;28;20461;-80
2023/11/17 00:17:16;;;;;;;1.70;1.30;;;6.80;98.20;;;;;;4997236;28;20622;-79
2023/11/17 00:19:44;;;;;;;1.67;1.30;;;6.70;98.20;;;;;;5014412;28;20464;-80
2023/11/17 00:22:11;;;;;;;1.63;1.30;;;6.70;98.20;;;;;;5002728;28;20873;-81
2023/11/17 00:24:38;;;;;;;1.63;1.30;;;6.70;98.20;;;;;;5009173;28;20475;-82
2023/11/17 00:27:05;;;;;;;1.60;1.30;;;6.70;98.20;;;;;;4999007;28;20483;-79
2023/11/17 00:29:32;;;;;;;1.60;1.30;;;6.70;98.20;;;;;;5010745;28;20464;-80
2023/11/17 00:31:59;;;;;;;1.63;1.30;;;6.60;98.20;;;;;;5000270;28;20472;-80
2023/11/17 00:34:26;;;;;;;1.60;1.30;;;6.60;98.20;;;;;;5014025;28;20472;-80
2023/11/17 00:36:53;;;;;;;1.70;1.43;;;6.60;98.20;;;;;;5000951;28;20491;-80
2023/11/17 00:39:21;;;;;;;1.63;1.40;;;6.50;98.20;;;;;;5011106;28;20847;-80
2023/11/17 00:41:47;;;;;;;1.67;1.37;;;6.50;98.20;;;;;;4996918;28;20475;-79
2023/11/17 00:44:14;;;;;;;1.60;1.30;;;6.50;98.20;;;;;;5009426;28;20471;-80
2023/11/17 00:46:41;;;;;;;1.60;1.30;;;6.50;98.20;;;;;;4998895;28;20933;-80
2023/11/17 00:49:09;;;;;;;1.70;1.30;;;6.40;98.20;;;;;;5007619;28;20559;-80
2023/11/17 00:51:36;;;;;;;1.70;1.40;;;6.40;98.20;;;;;;5002212;28;20568;-80
2023/11/17 00:54:04;;;;;;;1.60;1.30;;;6.40;98.20;;;;;;5008032;28;20567;-79
2023/11/17 00:56:33;;;;;;;1.60;1.30;;;6.40;98.20;;;;;;5001309;28;20510;-80
2023/11/17 00:59:00;;;;;;;1.60;1.30;;;6.40;98.20;;;;;;5007702;28;20964;-79
2023/11/17 01:01:27;;;;;;;1.70;1.40;;;6.40;98.20;;;;;;5002182;28;20840;-80
2023/11/17 01:03:54;;;;;;;1.63;1.30;;;6.30;98.20;;;;;;5009439;28;20492;-80
2023/11/17 01:06:21;;;;;;;1.60;1.30;;;6.30;98.20;;;;;;4996986;28;20876;-80
2023/11/17 01:08:48;;;;;;;1.63;1.40;;;6.30;98.20;;;;;;5006258;28;20475;-80
2023/11/17 01:11:14;;;;;;;1.60;1.30;;;6.30;98.20;;;;;;5002662;28;20471;-80
2023/11/17 01:13:42;;;;;;;1.60;1.30;;;6.30;98.20;;;;;;5006965;28;20746;-81
2023/11/17 01:16:09;;;;;;;1.60;1.40;;;6.30;98.20;;;;;;5000382;28;20491;-78
2023/11/17 01:18:36;;;;;;;1.63;1.40;;;6.30;98.20;;;;;;5009666;28;20471;-80
2023/11/17 01:21:05;;;;;;;1.60;1.30;;;6.30;98.20;;;;;;4999869;28;20971;-79
2023/11/17 01:23:32;;;;;;;1.60;1.30;;;6.20;98.20;;;;;;5016949;28;20471;-81
2023/11/17 01:25:59;;;;;;;1.60;1.40;;;6.20;98.20;;;;;;5006402;28;20468;-80
2023/11/17 01:28:25;;;;;;;1.60;1.30;;;6.20;98.20;;;;;;5014701;28;20468;-80
2023/11/17 01:30:53;;;;;;;1.70;1.50;;;6.20;98.20;;;;;;5006634;28;20460;-78
2023/11/17 01:33:20;;;;;;;1.70;1.30;;;6.20;98.20;;;;;;5008057;28;20492;-80
2023/11/17 01:35:49;;;;;;;1.63;1.30;;;6.10;98.20;;;;;;5005485;28;20842;-80
2023/11/17 01:38:17;;;;;;;1.67;1.30;;;6.10;98.20;;;;;;5016748;28;20554;-81
2023/11/17 01:40:44;;;;;;;1.70;1.33;;;6.10;98.20;;;;;;5012435;28;20670;-80
2023/11/17 01:43:11;;;;;;;1.63;1.30;;;6.10;98.20;;;;;;5004405;28;20472;-80
2023/11/17 01:45:39;;;;;;;1.60;1.30;;;6.00;98.20;;;;;;5016189;28;20459;-80
2023/11/17 01:48:08;;;;;;;1.63;1.30;;;6.00;98.20;;;;;;4999950;28;20480;-79
2023/11/17 01:50:35;;;;;;;1.67;1.30;;;6.00;98.20;;;;;;5014078;28;20491;-80
2023/11/17 01:53:02;;;;;;;1.60;1.30;;;5.90;98.20;;;;;;5003074;28;20899;-79
2023/11/17 01:55:29;;;;;;;1.70;1.50;;;5.90;98.20;;;;;;5011947;28;20460;-80
2023/11/17 01:57:57;;;;;;;1.63;1.37;;;5.90;98.20;;;;;;5002952;28;20488;-79
2023/11/17 02:00:24;;;;;;;1.63;1.30;;;5.90;98.20;;;;;;5013192;28;20464;-80
2023/11/17 02:02:53;;;;;;;1.60;1.40;;;5.90;98.20;;;;;;5003912;28;20480;-81
2023/11/17 02:05:24;;;;;;;1.60;1.40;;;5.80;98.20;;;;;;5012425;28;20510;-80
2023/11/17 02:08:12;;;;;;;1.60;1.30;;;5.80;98.20;;;;;;5005023;28;20488;-79
2023/11/17 02:10:58;;;;;;;1.67;1.30;;;5.80;98.20;;;;;;5001788;28;20493;-80
2023/11/17 02:13:32;;;;;;;1.70;1.40;;;5.80;98.20;;;;;;4982577;28;20490;-80
2023/11/17 02:16:02;;;;;;;1.67;1.40;;;5.80;98.20;;;;;;5000834;28;21155;-79
2023/11/17 02:18:30;;;;;;;1.67;1.40;;;5.80;98.20;;;;;;5011170;28;20461;-80
2023/11/17 02:21:00;;;;;;;1.67;1.33;;;5.80;98.20;;;;;;5000033;28;20483;-80
2023/11/17 02:23:29;;;;;;;1.70;1.40;;;5.80;98.20;;;;;;5014403;28;20457;-79
2023/11/17 02:26:17;;;;;;;1.70;1.40;;;5.80;98.20;;;;;;5000496;28;20502;-80
2023/11/17 02:28:53;;;;;;;1.67;1.40;;;5.80;98.20;;;;;;5016330;28;20468;-78
2023/11/17 02:31:25;;;;;;;1.60;1.40;;;5.80;98.20;;;;;;5003469;28;20553;-78
2023/11/17 02:33:56;;;;;;;1.70;1.50;;;5.80;98.20;;;;;;5009383;28;20488;-80
2023/11/17 02:36:26;;;;;;;1.60;1.30;;;5.80;98.20;;;;;;5005596;28;20566;-80
2023/11/17 02:39:12;;;;;;;1.60;1.30;;;5.80;98.20;;;;;;5011437;28;20480;-79
2023/11/17 02:41:42;;;;;;;1.60;1.30;;;5.80;98.20;;;;;;5005960;28;21013;-79
2023/11/17 02:44:15;;;;;;;1.67;1.40;;;5.80;98.20;;;;;;5006033;28;20467;-79
2023/11/17 02:46:44;;;;;;;1.70;1.40;;;5.70;98.20;;;;;;5002272;28;20910;-80
2023/11/17 02:49:22;;;;;;;1.70;1.30;;;5.70;98.20;;;;;;5004006;28;20465;-80
2023/11/17 02:51:51;;;;;;;1.60;1.30;;;5.70;98.20;;;;;;5003730;28;20537;-80
2023/11/17 02:54:21;;;;;;;1.70;1.50;;;5.70;98.20;;;;;;5010751;28;20460;-77
2023/11/17 02:56:49;;;;;;;1.60;1.30;;;5.70;98.20;;;;;;5006487;28;20479;-79
2023/11/17 02:59:18;;;;;;;1.70;1.47;;;5.60;98.20;;;;;;5007118;28;20464;-78
2023/11/17 03:01:46;;;;;;;1.60;1.30;;;5.60;98.20;;;;;;4994583;28;20507;-79
2023/11/17 03:04:15;;;;;;;1.70;1.40;;;5.60;98.20;;;;;;5004021;28;20886;-78
2023/11/17 03:06:45;;;;;;;1.63;1.37;;;5.50;98.20;;;;;;5005757;28;20541;-78
2023/11/17 03:09:14;;;;;;;1.70;1.40;;;5.50;98.20;;;;;;5013880;28;20818;-79
2023/11/17 03:11:41;;;;;;;1.60;1.40;;;5.50;98.20;;;;;;5004218;28;20486;-78
2023/11/17 03:14:08;;;;;;;1.63;1.40;;;5.50;98.20;;;;;;4999820;28;20535;-79
2023/11/17 03:16:35;;;;;;;1.60;1.40;;;5.50;98.20;;;;;;4990259;28;20492;-79
2023/11/17 03:19:09;;;;;;;1.70;1.50;;;5.40;98.20;;;;;;5001602;28;20749;-78
2023/11/17 03:21:38;;;;;;;1.63;1.37;;;5.40;98.20;;;;;;4993961;28;20502;-79
2023/11/17 03:24:06;;;;;;;1.60;1.40;;;5.40;98.20;;;;;;4991075;28;20902;-78
2023/11/17 03:26:33;;;;;;;1.63;1.30;;;5.30;98.20;;;;;;4994172;28;20483;-80
2023/11/17 03:29:04;;;;;;;1.67;1.30;;;5.30;98.20;;;;;;5000094;28;20457;-80
2023/11/17 03:31:31;;;;;;;1.70;1.40;;;5.20;98.20;;;;;;5000523;28;20566;-79
2023/11/17 03:34:01;;;;;;;1.67;1.40;;;5.20;98.20;;;;;;4994408;28;20499;-80
2023/11/17 03:36:29;;;;;;;1.60;1.40;;;5.10;98.20;;;;;;4998104;28;20491;-79
2023/11/17 03:38:56;;;;;;;1.60;1.40;;;5.10;98.20;;;;;;5012365;28;20460;-79
2023/11/17 03:41:23;;;;;;;1.70;1.40;;;5.10;98.20;;;;;;5001467;28;20475;-78
2023/11/17 03:43:50;;;;;;;1.67;1.40;;;5.10;98.20;;;;;;5009844;28;20495;-79
2023/11/17 03:46:17;;;;;;;1.70;1.40;;;5.00;98.20;;;;;;4986142;28;20487;-77
2023/11/17 03:48:44;;;;;;;1.63;1.40;;;5.00;98.20;;;;;;5001497;28;20480;-79
2023/11/17 03:51:11;;;;;;;1.60;1.30;;;5.00;98.20;;;;;;4993235;28;20477;-78
2023/11/17 03:53:39;;;;;;;1.67;1.40;;;4.90;98.20;;;;;;5001353;28;20559;-78
2023/11/17 03:56:06;;;;;;;1.60;1.40;;;4.90;98.20;;;;;;4991554;28;20620;-78
2023/11/17 03:58:33;;;;;;;1.70;1.40;;;4.90;98.20;;;;;;5006673;28;20837;-77
2023/11/17 04:01:00;;;;;;;1.60;1.40;;;4.80;98.20;;;;;;4994669;28;21008;-77
2023/11/17 04:03:26;;;;;;;1.63;1.40;;;4.80;98.20;;;;;;5010151;28;20456;-79
2023/11/17 04:05:53;;;;;;;1.67;1.43;;;4.80;98.20;;;;;;4997559;28;20474;-80
2023/11/17 04:08:20;;;;;;;1.67;1.40;;;4.80;98.20;;;;;;4989907;28;20456;-78
2023/11/17 04:10:48;;;;;;;1.67;1.40;;;4.90;98.20;;;;;;4991550;28;20483;-78
2023/11/17 04:13:14;;;;;;;1.70;1.40;;;4.90;98.20;;;;;;5002737;28;20500;-78
2023/11/17 04:15:42;;;;;;;1.63;1.30;;;4.90;98.20;;;;;;4998063;28;20910;-77
2023/11/17 04:18:09;;;;;;;1.70;1.40;;;4.90;98.20;;;;;;4993048;28;20484;-78
2023/11/17 04:20:36;;;;;;;1.70;1.50;;;4.90;98.20;;;;;;5002975;28;20467;-79
2023/11/17 04:23:03;;;;;;;1.70;1.50;;;4.90;98.20;;;;;;4989545;28;20484;-80
2023/11/17 04:25:30;;;;;;;1.70;1.40;;;4.90;98.20;;;;;;4990942;28;21006;-77
2023/11/17 04:27:58;;;;;;;1.67;1.40;;;4.90;98.20;;;;;;4990605;28;20508;-80
2023/11/17 04:30:25;;;;;;;1.70;1.40;;;4.90;98.20;;;;;;4997183;28;20975;-77
2023/11/17 04:32:52;;;;;;;1.67;1.40;;;4.90;98.20;;;;;;4996172;28;20492;-79
2023/11/17 04:35:18;;;;;;;1.63;1.40;;;4.90;98.20;;;;;;4998646;28;20457;-78
2023/11/17 04:37:46;;;;;;;1.70;1.60;;;4.90;98.20;;;;;;5006749;28;20491;-79
2023/11/17 04:40:16;;;;;;;1.67;1.40;;;4.90;98.20;;;;;;4998271;28;20491;-79
2023/11/17 04:42:42;;;;;;;1.60;1.30;;;4.90;98.20;;;;;;4994433;28;20536;-79
2023/11/17 04:45:11;;;;;;;1.60;1.30;;;4.90;98.20;;;;;;5008690;28;20460;-77
2023/11/17 04:47:38;;;;;;;1.70;1.50;;;4.90;98.20;;;;;;4997738;28;20494;-79
2023/11/17 04:50:08;;;;;;;1.67;1.30;;;4.90;98.20;;;;;;5009583;28;21021;-79
2023/11/17 04:52:35;;;;;;;1.67;1.40;;;4.90;98.20;;;;;;4996618;28;20489;-79
2023/11/17 04:55:05;;;;;;;1.63;1.30;;;4.80;98.20;;;;;;5007961;28;20479;-80
2023/11/17 04:57:33;;;;;;;1.63;1.40;;;4.80;98.20;;;;;;5002333;28;20579;-80
2023/11/17 05:00:03;;;;;;;1.63;1.40;;;4.80;98.20;;;;;;5012396;28;20472;-77
2023/11/17 05:02:33;;;;;;;1.70;1.43;;;4.80;98.20;;;;;;5001733;28;20489;-80
2023/11/17 05:05:00;;;;;;;1.63;1.30;;;4.80;98.20;;;;;;5005093;28;20471;-80
2023/11/17 05:07:27;;;;;;;1.60;1.40;;;4.90;98.20;;;;;;5010813;28;20576;-78
2023/11/17 05:09:53;;;;;;;1.70;1.40;;;4.90;98.20;;;;;;5007235;28;20979;-80
2023/11/17 05:12:20;;;;;;;1.70;1.40;;;4.90;98.20;;;;;;5004157;28;20488;-79
2023/11/17 05:14:50;;;;;;;1.70;1.40;;;4.90;98.20;;;;;;5013829;28;20495;-78
2023/11/17 05:17:16;;;;;;;1.70;1.40;;;4.90;98.20;;;;;;5012339;28;20490;-80
2023/11/17 05:19:45;;;;;;;1.67;1.40;;;5.00;98.20;;;;;;5023010;28;20524;-79
2023/11/17 05:22:12;;;;;;;1.60;1.30;;;5.00;98.20;;;;;;5013943;28;20480;-78
2023/11/17 05:24:39;;;;;;;1.63;1.30;;;5.00;98.20;;;;;;5018255;28;20463;-78
2023/11/17 05:27:06;;;;;;;1.70;1.40;;;5.00;98.20;;;;;;5012163;28;20496;-78
2023/11/17 05:29:33;;;;;;;1.67;1.40;;;5.00;98.20;;;;;;5017116;28;20846;-79
2023/11/17 05:32:00;;;;;;;1.60;1.30;;;5.10;98.20;;;;;;5007874;28;20540;-79
2023/11/17 05:34:27;;;;;;;1.63;1.30;;;5.10;98.20;;;;;;5022683;28;20512;-77
2023/11/17 05:36:55;;;;;;;1.60;1.33;;;5.10;98.20;;;;;;5012656;28;20499;-79
2023/11/17 05:39:23;;;;;;;1.70;1.47;;;5.10;98.20;;;;;;5021856;28;20467;-78
2023/11/17 05:41:51;;;;;;;1.67;1.40;;;5.10;98.20;;;;;;5003365;28;20521;-78
2023/11/17 05:44:18;;;;;;;1.60;1.30;;;5.20;98.20;;;;;;5021440;28;20554;-82
2023/11/17 05:46:45;;;;;;;1.60;1.33;;;5.20;98.20;;;;;;5003923;28;20514;-78
2023/11/17 05:49:12;;;;;;;1.70;1.40;;;5.20;98.20;;;;;;5013822;28;20826;-77
2023/11/17 05:51:39;;;;;;;1.70;1.40;;;5.20;98.20;;;;;;5011230;28;20762;-79
2023/11/17 05:54:07;;;;;;;1.60;1.30;;;5.20;98.20;;;;;;5021203;28;20476;-79
2023/11/17 05:56:34;;;;;;;1.70;1.30;;;5.20;98.20;;;;;;5017636;28;20538;-79
2023/11/17 05:59:01;;;;;;;1.60;1.30;;;5.20;98.20;;;;;;5017432;28;20543;-78
2023/11/17 06:01:29;;;;;;;1.60;1.30;;;5.20;98.20;;;;;;5009911;28;20812;-77
2023/11/17 06:03:56;;;;;;;1.67;1.40;;;5.10;98.20;;;;;;5016441;28;20495;-78
2023/11/17 06:06:23;;;;;;;1.60;1.30;;;5.10;98.20;;;;;;5009492;28;20487;-79
2023/11/17 06:08:50;;;;;;;1.60;1.30;;;5.10;98.20;;;;;;5014395;28;20469;-78
2023/11/17 06:11:24;;;;;;;1.67;1.30;;;5.10;98.20;;;;;;5001765;28;21108;-78
2023/11/17 06:13:51;;;;;;;1.70;1.50;;;5.10;98.20;;;;;;5015333;28;20522;-78
2023/11/17 06:16:18;;;;;;;1.60;1.30;;;5.10;98.20;;;;;;5005522;28;20564;-78
2023/11/17 06:18:45;;;;;;;1.70;1.50;;;5.10;98.20;;;;;;5018666;28;20465;-79
2023/11/17 06:21:12;;;;;;;1.60;1.40;;;5.10;98.20;;;;;;5000804;28;21505;-78
2023/11/17 06:23:39;;;;;;;1.67;1.40;;;5.10;98.20;;;;;;5017563;28;20911;-78
2023/11/17 06:26:06;;;;;;;1.60;1.30;;;5.10;98.20;;;;;;5003035;28;20471;-77
2023/11/17 06:28:34;;;;;;;1.60;1.37;;;5.20;98.20;;;;;;5011445;28;20984;-77
2023/11/17 06:31:01;;;;;;;1.60;1.40;;;5.20;98.20;;;;;;5009389;28;20475;-78
2023/11/17 06:33:27;;;;;;;1.60;1.20;;;5.20;98.20;;;;;;5007229;28;20759;-78
2023/11/17 06:35:55;;;;;;;3.83;3.53;;;5.20;98.20;;;;;;5009233;28;20549;-77
2023/11/17 06:38:21;;;;;;;1.60;1.30;;;5.20;98.20;;;;;;5024072;28;20857;-78
2023/11/17 06:40:48;;;;;;;1.60;1.20;;;5.30;98.20;;;;;;5005937;28;20500;-78
2023/11/17 06:43:15;;;;;;;1.60;1.30;;;5.30;98.20;;;;;;5016381;28;20474;-78
2023/11/17 06:45:46;;;;;;;1.60;1.40;;;5.30;98.20;;;;;;5013930;28;20459;-79
2023/11/17 06:48:13;;;;;;;1.60;1.40;;;5.40;98.20;;;;;;4988183;28;20479;-78
2023/11/17 06:50:40;;;;;;;1.67;1.40;;;5.40;98.20;;;;;;5009814;28;20579;-78
2023/11/17 06:53:10;;;;;;;1.70;1.40;;;5.40;98.20;;;;;;5008541;28;20488;-78
2023/11/17 06:55:36;;;;;;;1.60;1.30;;;5.40;98.20;;;;;;5012737;28;20955;-77
2023/11/17 06:58:04;;;;;;;1.67;1.37;;;5.40;98.20;;;;;;5007706;28;21007;-78
2023/11/17 07:00:32;;;;;;;1.60;1.30;;;5.40;98.20;;;;;;5013512;28;20548;-78
2023/11/17 07:03:01;;;;;;;1.60;1.30;;;5.40;98.20;;;;;;4993894;28;20494;-77
2023/11/17 07:05:29;;;;;;;1.67;1.40;;;5.40;98.20;;;;;;5010918;28;20502;-77
2023/11/17 07:07:58;;;;;;;1.63;1.30;;;5.40;98.20;;;;;;5004693;28;20769;-78
2023/11/17 07:10:25;;;;;;;1.60;1.30;;;5.40;98.20;;;;;;5018905;28;20554;-79
2023/11/17 07:12:53;;;;;;;1.70;1.50;;;5.30;98.20;;;;;;5006205;28;20857;-77
2023/11/17 07:15:20;;;;;;;1.60;1.30;;;5.30;98.20;;;;;;5011391;28;20492;-77
2023/11/17 07:17:47;;;;;;;1.60;1.30;;;5.30;98.20;;;;;;4996284;28;20585;-78
2023/11/17 07:20:17;;;;;;;1.60;1.27;;;5.40;98.20;;;;;;5008988;28;20565;-77
2023/11/17 07:22:44;;;;;;;1.60;1.30;;;5.30;98.20;;;;;;4995716;28;20487;-77
2023/11/17 07:25:11;;;;;;;1.70;1.40;;;5.20;98.20;;;;;;5006237;28;20527;-77
2023/11/17 07:27:39;;;;;;;1.60;1.30;;;5.30;98.20;;;;;;4998673;28;20491;-77
2023/11/17 07:30:12;;;;;;;1.60;1.30;;;5.30;98.20;;;;;;5009466;28;20468;-78
2023/11/17 07:32:39;;;;;;;1.60;1.30;;;5.20;98.20;;;;;;5003090;28;20633;-77
2023/11/17 07:35:07;;;;;;;1.70;1.40;;;5.30;98.20;;;;;;5003425;28;21092;-77
2023/11/17 07:37:36;;;;;;;1.70;1.40;;;5.30;98.20;;;;;;4999354;28;20490;-77
2023/11/17 07:40:04;;;;;;;1.60;1.30;;;5.30;98.20;;;;;;5009516;28;20475;-78
2023/11/17 07:42:32;;;;;;;1.60;1.30;;;5.40;98.20;;;;;;4998311;28;20562;-77
2023/11/17 07:44:59;;;;;;;1.70;1.40;;;5.40;98.20;;;;;;5007574;28;20559;-78
2023/11/17 07:47:26;;;;;;;1.63;1.30;;;5.40;98.20;;;;;;5003099;28;20491;-77
2023/11/17 07:49:54;;;;;;;1.63;1.30;;;5.40;98.20;;;;;;5008752;28;20560;-78
2023/11/17 07:52:23;;;;;;;1.70;1.50;;;5.50;98.20;;;;;;4998105;28;20484;-77
2023/11/17 07:54:51;;;;;;;1.60;1.23;;;5.50;98.20;;;;;;5004467;28;20569;-77
2023/11/17 07:57:19;;;;;;;2.23;1.90;;;5.60;98.20;;;;;;5000343;28;20502;-78
2023/11/17 07:59:48;;;;;;;1.60;1.30;;;5.60;98.20;;;;;;5015152;28;20830;-77
2023/11/17 08:02:15;;;;;;;1.60;1.30;;;5.70;98.20;;;;;;4994750;28;20881;-78
2023/11/17 08:04:42;;;;;;;1.60;1.30;;;5.70;98.20;;;;;;5007127;28;20818;-77
2023/11/17 08:07:10;;;;;;;1.67;1.40;;;5.80;98.20;;;;;;4996884;28;20528;-77
2023/11/17 08:09:37;;;;;;;1.63;1.30;;;5.80;98.20;;;;;;5005765;28;20641;-78
2023/11/17 08:12:07;;;;;;;1.60;1.30;;;5.80;98.20;;;;;;4998854;28;20917;-78
2023/11/17 08:14:34;;;;;;;1.60;1.30;;;5.90;98.20;;;;;;5011405;28;20907;-77
2023/11/17 08:17:01;;;;;;;1.70;1.30;;;5.90;98.20;;;;;;4997420;28;20483;-78
2023/11/17 08:19:28;;;;;;;1.60;1.27;;;6.00;98.20;;;;;;5013026;28;20478;-77
2023/11/17 08:21:55;;;;;;;1.67;1.30;;;6.00;98.20;;;;;;4995910;28;21156;-78
2023/11/17 08:24:22;;;;;;;1.67;1.30;;;6.00;98.20;;;;;;5005895;28;20979;-77
2023/11/17 08:26:51;;;;;;;1.60;1.20;;;6.00;98.20;;;;;;4997840;28;21159;-79
2023/11/17 08:29:19;;;;;;;1.60;1.27;;;6.00;98.20;;;;;;5002000;28;20463;-78
2023/11/17 08:31:46;;;;;;;1.60;1.33;;;6.10;98.20;;;;;;5003475;28;20483;-78
2023/11/17 08:34:14;;;;;;;1.70;1.40;;;6.10;98.20;;;;;;5009339;28;20577;-78
2023/11/17 08:36:41;;;;;;;1.63;1.30;;;6.20;98.20;;;;;;5004728;28;20493;-77
2023/11/17 08:39:08;;;;;;;1.60;1.30;;;6.20;98.20;;;;;;5009875;28;20571;-78
2023/11/17 08:41:35;;;;;;;1.60;1.30;;;6.20;98.20;;;;;;5000873;28;20475;-78
2023/11/17 08:44:02;;;;;;;1.70;1.40;;;6.30;98.20;;;;;;5020045;28;20464;-78
2023/11/17 08:46:31;;;;;;;1.63;1.30;;;6.30;98.20;;;;;;5000370;28;20490;-78
2023/11/17 08:48:59;;;;;;;1.70;1.23;;;6.30;98.20;;;;;;5013865;28;20467;-78
2023/11/17 08:51:26;;;;;;;1.63;1.30;;;6.30;98.20;;;;;;4999737;28;21056;-78
2023/11/17 08:53:54;;;;;;;3.10;2.90;;;6.40;98.20;;;;;;5007624;28;20847;-79
2023/11/17 08:56:22;;;;;;;1.60;1.30;;;6.40;98.20;;;;;;4996241;28;20490;-78
2023/11/17 08:58:48;;;;;;;1.60;1.30;;;6.40;98.20;;;;;;5010784;28;20878;-78
2023/11/17 09:01:17;;;;;;;1.60;1.30;;;6.40;98.20;;;;;;4993570;28;20492;-79
2023/11/17 09:03:47;;;;;;;1.60;1.23;;;6.40;98.20;;;;;;5008493;28;20464;-79
2023/11/17 09:06:14;;;;;;;1.60;1.30;;;6.50;98.20;;;;;;4995959;28;21125;-77
2023/11/17 09:08:41;;;;;;;1.60;1.30;;;6.50;98.20;;;;;;5009067;28;20624;-78
2023/11/17 09:11:09;;;;;;;1.70;1.30;;;6.50;98.20;;;;;;4993911;28;22172;-79
2023/11/17 09:13:39;;;;;;;1.63;1.20;;;6.50;98.20;;;;;;5003604;28;20469;-80
2023/11/17 09:16:07;;;;;;;1.63;1.30;;;6.60;98.20;;;;;;4998470;28;20457;-79
2023/11/17 09:18:35;;;;;;;1.60;1.30;;;6.50;98.20;;;;;;5005716;28;20986;-79
2023/11/17 09:21:05;;;;;;;1.67;1.30;;;6.60;98.20;;;;;;4998665;28;20464;-78
2023/11/17 09:23:34;;;;;;;1.60;1.30;;;6.60;98.20;;;;;;5006357;28;20887;-78
2023/11/17 09:26:02;;;;;;;1.67;1.30;;;6.60;98.20;;;;;;4999474;28;20463;-78
2023/11/17 09:28:29;;;;;;;1.60;1.20;;;6.70;98.20;;;;;;5013523;28;20463;-79
2023/11/17 09:30:57;;;;;;;1.60;1.30;;;6.70;98.20;;;;;;4999561;28;20935;-78
2023/11/17 09:33:24;;;;;;;1.70;1.40;;;6.70;98.20;;;;;;5010887;28;20963;-79
2023/11/17 09:35:51;;;;;;;1.60;1.30;;;6.70;98.20;;;;;;4998061;28;20488;-78
2023/11/17 09:38:19;;;;;;;3.10;2.17;;;6.70;98.20;;;;;;5011293;28;20495;-78
2023/11/17 09:40:46;;;;;;;1.63;1.30;;;6.70;98.20;;;;;;5005457;28;20499;-79
2023/11/17 09:43:19;;;;;;;1.60;1.27;;;6.70;98.20;;;;;;5013287;28;20507;-80
2023/11/17 09:45:46;;;;;;;1.60;1.30;;;6.70;98.20;;;;;;5008391;28;20463;-79
2023/11/17 09:48:16;;;;;;;1.70;1.43;;;6.70;98.20;;;;;;5004826;28;21033;-78
2023/11/17 09:50:43;;;;;;;4.13;3.93;;;6.70;98.20;;;;;;5007161;28;20471;-78
2023/11/17 09:53:15;;;;;;;1.70;1.30;;;6.80;98.20;;;;;;4998581;28;20486;-79
2023/11/17 09:55:44;;;;;;;3.53;3.30;;;6.80;98.20;;;;;;5016120;28;20499;-79
2023/11/17 09:58:12;;;;;;;1.60;1.30;;;6.90;98.20;;;;;;4986171;28;20495;-79
2023/11/17 10:00:41;;;;;;;1.60;1.30;;;6.90;98.20;;;;;;5010188;28;20468;-78
2023/11/17 10:03:13;;;;;;;1.60;1.30;;;6.90;98.20;;;;;;5000210;28;21008;-79
2023/11/17 10:05:41;;;;;;;1.63;1.30;;;6.90;98.20;;;;;;5011360;28;20920;-78
2023/11/17 10:08:10;;;;;;;2.30;2.03;;;6.90;98.20;;;;;;5000403;28;20849;-78
2023/11/17 10:10:39;;;;;;;1.60;1.27;;;6.90;98.20;;;;;;5012697;28;20464;-79
2023/11/17 10:13:11;;;;;;;1.60;1.20;;;7.00;98.20;;;;;;4994889;28;20647;-77
2023/11/17 10:15:39;;;;;;;1.60;1.20;;;7.00;98.20;;;;;;5013405;28;20491;-80
2023/11/17 10:18:08;;;;;;;5.50;3.07;;;7.10;98.20;;;;;;5009128;28;20491;-80
2023/11/17 10:20:37;;;;;;;1.67;1.30;;;7.10;98.20;;;;;;5006705;28;20878;-79
2023/11/17 10:23:05;;;;;;;1.70;1.30;;;7.10;98.20;;;;;;4991355;28;20511;-77
2023/11/17 10:25:32;;;;;;;1.60;1.20;;;7.20;98.20;;;;;;5008551;28;20463;-78
2023/11/17 10:28:02;;;;;;;1.70;1.30;;;7.20;98.20;;;;;;5003963;28;20495;-79
2023/11/17 10:30:34;;;;;;;1.70;1.30;;;7.20;98.20;;;;;;5011394;28;20463;-78
2023/11/17 10:33:13;;;;;;;1.60;1.30;;;7.20;98.20;;;;;;5000617;28;20566;-79
2023/11/17 10:35:43;;;;;;;1.70;1.40;;;7.20;98.20;;;;;;4995759;28;20508;-78
2023/11/17 10:38:15;;;;;;;1.67;1.23;;;7.20;98.20;;;;;;4993861;28;20983;-80
2023/11/17 10:40:42;;;;;;;1.60;1.20;;;7.30;98.20;;;;;;4993316;28;20468;-79
2023/11/17 10:43:14;;;;;;;1.70;1.40;;;7.30;98.20;;;;;;4998729;28;20564;-79
2023/11/17 10:45:44;;;;;;;1.63;1.30;;;7.30;98.20;;;;;;4993268;28;20468;-79
2023/11/17 10:48:13;;;;;;;1.70;1.37;;;7.30;98.20;;;;;;4998793;28;20951;-79
2023/11/17 10:50:42;;;;;;;1.70;1.30;;;7.30;98.20;;;;;;4991419;28;20465;-78
2023/11/17 10:53:13;;;;;;;1.70;1.40;;;7.40;98.20;;;;;;5000239;28;20843;-80
2023/11/17 10:55:42;;;;;;;1.70;1.30;;;7.50;98.20;;;;;;4990037;28;20499;-79
2023/11/17 10:58:13;;;;;;;1.63;1.30;;;7.50;98.20;;;;;;4978138;28;20489;-79
2023/11/17 11:00:40;;;;;;;1.67;1.20;;;7.50;98.20;;;;;;4989043;28;21287;-79
2023/11/17 11:03:12;;;;;;;1.60;1.27;;;7.60;98.20;;;;;;4983129;28;20489;-78
2023/11/17 11:05:41;;;;;;;1.70;1.40;;;7.60;98.20;;;;;;4991708;28;20900;-78
2023/11/17 11:08:13;;;;;;;1.63;1.30;;;7.60;98.20;;;;;;4980469;28;20495;-78
2023/11/17 11:10:49;;;;;;;1.70;1.30;;;7.60;98.20;;;;;;4994766;28;20485;-79
2023/11/17 11:13:17;;;;;;;1.70;1.30;;;7.70;98.20;;;;;;4978999;28;20489;-79
2023/11/17 11:15:44;;;;;;;1.70;1.37;;;7.80;98.20;;;;;;4989670;28;20570;-78
2023/11/17 11:18:16;;;;;;;1.63;1.20;;;7.90;98.20;;;;;;4977813;28;20725;-78
2023/11/17 11:20:46;;;;;;;1.97;1.77;;;7.90;98.20;;;;;;5003267;28;20521;-78
2023/11/17 11:23:15;;;;;;;1.67;1.20;;;8.00;98.20;;;;;;4978532;28;20487;-78
2023/11/17 11:25:45;;;;;;;1.70;1.30;;;8.10;98.20;;;;;;4986767;28;20959;-79
2023/11/17 11:28:14;;;;;;;1.60;1.20;;;8.10;98.20;;;;;;4968496;28;20484;-80
2023/11/17 11:30:42;;;;;;;1.60;1.20;;;8.20;98.20;;;;;;4992159;28;20468;-78
2023/11/17 11:33:11;;;;;;;1.60;1.20;;;8.10;98.20;;;;;;4985220;28;20476;-79
2023/11/17 11:35:41;;;;;;;1.60;1.20;;;8.10;98.20;;;;;;4990943;28;20684;-81
2023/11/17 11:38:09;;;;;;;1.60;1.20;;;8.20;98.20;;;;;;4982503;28;20493;-79
2023/11/17 11:40:41;;;;;;;1.70;1.30;;;8.30;98.20;;;;;;4988361;28;20678;-80
2023/11/17 11:43:08;;;;;;;1.60;1.20;;;8.30;98.20;;;;;;4974232;28;20552;-80
2023/11/17 11:45:36;;;;;;;2.43;2.13;;;8.20;98.20;;;;;;4991499;28;20493;-80
2023/11/17 11:48:07;;;;;;;1.60;1.20;;;8.20;98.20;;;;;;4980299;28;20801;-80
2023/11/17 11:50:39;;;;;;;1.67;1.20;;;8.20;98.20;;;;;;5001956;28;20491;-80
2023/11/17 11:53:28;;;;;;;1.60;1.10;;;8.20;98.20;;;;;;4984417;28;20594;-81
2023/11/17 11:56:02;;;;;;;1.60;1.20;;;8.20;98.20;;;;;;4981582;28;21014;-79
2023/11/17 11:58:29;;;;;;;1.60;1.10;;;8.30;98.20;;;;;;4995523;28;20499;-79
2023/11/17 12:00:58;;;;;;;1.70;1.30;;;8.30;98.20;;;;;;4981654;28;20460;-81
2023/11/17 12:03:25;;;;;;;1.70;1.30;;;8.30;98.20;;;;;;4993657;28;20564;-79
2023/11/17 12:05:54;;;;;;;1.63;1.20;;;8.40;98.20;;;;;;4982771;28;20467;-80
2023/11/17 12:08:29;;;;;;;1.70;1.30;;;8.40;98.20;;;;;;4991402;28;20497;-80
2023/11/17 12:11:01;;;;;;;1.60;1.20;;;8.40;98.20;;;;;;4985384;28;20469;-79
2023/11/17 12:13:42;;;;;;;1.60;1.10;;;8.40;98.20;;;;;;4997670;28;20465;-79
2023/11/17 12:16:12;;;;;;;2.63;2.43;;;8.50;98.20;;;;;;4988672;28;20493;-79
2023/11/17 12:18:41;;;;;;;1.63;1.20;;;8.50;98.20;;;;;;5004729;28;20499;-82
2023/11/17 12:21:18;;;;;;;2.20;2.00;;;8.50;98.20;;;;;;4987945;28;20491;-81
2023/11/17 12:23:57;;;;;;;1.60;1.20;;;8.60;98.20;;;;;;4998963;28;20474;-79
2023/11/17 12:26:25;;;;;;;1.60;1.13;;;8.60;98.20;;;;;;4984514;28;20502;-79
2023/11/17 12:28:54;;;;;;;1.60;1.10;;;8.60;98.20;;;;;;4998833;28;20472;-80
2023/11/17 12:31:22;;;;;;;1.60;1.20;;;8.60;98.20;;;;;;4986508;28;20486;-81
2023/11/17 12:33:50;;;;;;;1.60;1.20;;;8.70;98.20;;;;;;4997232;28;20467;-80
2023/11/17 12:36:19;;;;;;;1.60;1.17;;;8.70;98.20;;;;;;4984167;28;20596;-80
2023/11/17 12:38:52;;;;;;;1.60;1.20;;;8.70;98.20;;;;;;4997618;28;20467;-80
2023/11/17 12:41:22;;;;;;;1.67;1.30;;;8.80;98.20;;;;;;4991601;28;20492;-81
2023/11/17 12:43:51;;;;;;;1.60;1.20;;;8.80;98.20;;;;;;5005344;28;20460;-79
2023/11/17 12:46:18;;;;;;;1.70;1.30;;;8.90;98.20;;;;;;4984891;28;20978;-79
2023/11/17 12:48:47;;;;;;;1.60;1.27;;;9.00;98.20;;;;;;4991368;28;20469;-81
2023/11/17 12:51:25;;;;;;;1.67;1.20;;;9.10;98.20;;;;;;4985235;28;20484;-80
2023/11/17 12:53:54;;;;;;;1.60;1.10;;;9.10;98.20;;;;;;4992095;28;20480;-79
2023/11/17 12:56:23;;;;;;;1.60;1.10;;;9.20;98.20;;;;;;4988914;28;20591;-80
2023/11/17 12:58:50;;;;;;;1.70;1.30;;;9.30;98.20;;;;;;4996920;28;20650;-80
2023/11/17 13:01:19;;;;;;;1.60;1.10;;;9.30;98.20;;;;;;4984353;28;20481;-80
2023/11/17 13:06:24;;;;;;;1.60;1.20;;;9.50;98.20;;;;;;4962640;23;21004;-81